sensor_id;sensor_type;location;lat;lon;timestamp;P1;durP1;ratioP1;P2;durP2;ratioP2
9986;SDS011;5033;46.310;11.214;2022-09-27T00:00:01;1.60;;;1.50;;
9986;SDS011;5033;46.310;11.214;2022-09-27T00:02:29;1.63;;;1.52;;
9986;SDS011;5033;46.310;11.214;2022-09-27T00:04:57;1.70;;;1.60;;
9986;SDS011;5033;46.310;11.214;2022-09-27T00:07:24;1.65;;;1.55;;
9986;SDS011;5033;46.310;11.214;2022-09-27T00:09:51;1.65;;;1.55;;
9986;SDS011;5033;46.310;11.214;2022-09-27T00:12:19;1.60;;;1.50;;
9986;SDS011;5033;46.310;11.214;2022-09-27T00:14:46;1.83;;;1.73;;
9986;SDS011;5033;46.310;11.214;2022-09-27T00:17:13;1.70;;;1.60;;
9986;SDS011;5033;46.310;11.214;2022-09-27T00:19:40;2.28;;;2.08;;
9986;SDS011;5033;46.310;11.214;2022-09-27T00:22:08;2.55;;;2.35;;
9986;SDS011;5033;46.310;11.214;2022-09-27T00:24:35;2.20;;;2.10;;
9986;SDS011;5033;46.310;11.214;2022-09-27T00:27:03;2.40;;;2.20;;
9986;SDS011;5033;46.310;11.214;2022-09-27T00:29:30;2.40;;;2.25;;
9986;SDS011;5033;46.310;11.214;2022-09-27T00:31:57;2.40;;;2.20;;
9986;SDS011;5033;46.310;11.214;2022-09-27T00:34:24;2.53;;;2.33;;
9986;SDS011;5033;46.310;11.214;2022-09-27T00:36:51;2.47;;;2.28;;
9986;SDS011;5033;46.310;11.214;2022-09-27T00:39:21;2.72;;;2.53;;
9986;SDS011;5033;46.310;11.214;2022-09-27T00:41:48;2.15;;;2.05;;
9986;SDS011;5033;46.310;11.214;2022-09-27T00:47:32;2.90;;;2.20;;
9986;SDS011;5033;46.310;11.214;2022-09-27T00:50:06;2.38;;;2.17;;
9986;SDS011;5033;46.310;11.214;2022-09-27T00:52:47;2.67;;;2.22;;
9986;SDS011;5033;46.310;11.214;2022-09-27T00:55:25;1.90;;;1.80;;
9986;SDS011;5033;46.310;11.214;2022-09-27T00:57:54;2.40;;;2.20;;
9986;SDS011;5033;46.310;11.214;2022-09-27T01:00:22;2.30;;;2.20;;
9986;SDS011;5033;46.310;11.214;2022-09-27T01:02:50;1.75;;;1.65;;
9986;SDS011;5033;46.310;11.214;2022-09-27T01:05:21;2.25;;;2.15;;
9986;SDS011;5033;46.310;11.214;2022-09-27T01:07:51;2.65;;;1.83;;
9986;SDS011;5033;46.310;11.214;2022-09-27T01:10:20;2.08;;;1.98;;
9986;SDS011;5033;46.310;11.214;2022-09-27T01:12:54;2.45;;;2.25;;
9986;SDS011;5033;46.310;11.214;2022-09-27T01:15:27;2.88;;;2.20;;
9986;SDS011;5033;46.310;11.214;2022-09-27T01:18:06;2.75;;;2.53;;
9986;SDS011;5033;46.310;11.214;2022-09-27T01:21:05;2.67;;;2.47;;
9986;SDS011;5033;46.310;11.214;2022-09-27T01:23:54;2.78;;;2.30;;
9986;SDS011;5033;46.310;11.214;2022-09-27T01:26:48;2.35;;;1.88;;
9986;SDS011;5033;46.310;11.214;2022-09-27T01:29:31;2.15;;;1.95;;
9986;SDS011;5033;46.310;11.214;2022-09-27T01:32:10;2.78;;;2.35;;
9986;SDS011;5033;46.310;11.214;2022-09-27T01:34:45;2.63;;;2.42;;
9986;SDS011;5033;46.310;11.214;2022-09-27T01:37:18;2.00;;;1.90;;
9986;SDS011;5033;46.310;11.214;2022-09-27T01:39:52;2.08;;;1.98;;
9986;SDS011;5033;46.310;11.214;2022-09-27T01:42:26;2.45;;;2.35;;
9986;SDS011;5033;46.310;11.214;2022-09-27T01:44:59;2.63;;;2.42;;
9986;SDS011;5033;46.310;11.214;2022-09-27T01:47:31;2.75;;;2.53;;
9986;SDS011;5033;46.310;11.214;2022-09-27T01:50:04;2.55;;;2.35;;
9986;SDS011;5033;46.310;11.214;2022-09-27T01:52:36;3.00;;;2.80;;
9986;SDS011;5033;46.310;11.214;2022-09-27T01:55:07;2.80;;;2.60;;
9986;SDS011;5033;46.310;11.214;2022-09-27T01:57:37;2.65;;;2.45;;
9986;SDS011;5033;46.310;11.214;2022-09-27T02:00:08;2.33;;;2.22;;
9986;SDS011;5033;46.310;11.214;2022-09-27T02:02:38;2.47;;;2.28;;
9986;SDS011;5033;46.310;11.214;2022-09-27T02:05:09;2.40;;;2.25;;
9986;SDS011;5033;46.310;11.214;2022-09-27T02:07:43;2.60;;;2.40;;
9986;SDS011;5033;46.310;11.214;2022-09-27T02:10:15;2.53;;;2.33;;
9986;SDS011;5033;46.310;11.214;2022-09-27T02:12:48;2.53;;;2.33;;
9986;SDS011;5033;46.310;11.214;2022-09-27T02:15:21;1.98;;;1.80;;
9986;SDS011;5033;46.310;11.214;2022-09-27T02:17:52;2.10;;;2.00;;
9986;SDS011;5033;46.310;11.214;2022-09-27T02:20:26;2.10;;;2.00;;
9986;SDS011;5033;46.310;11.214;2022-09-27T02:22:58;2.22;;;2.13;;
9986;SDS011;5033;46.310;11.214;2022-09-27T02:25:36;2.00;;;1.90;;
9986;SDS011;5033;46.310;11.214;2022-09-27T02:28:09;2.50;;;2.30;;
9986;SDS011;5033;46.310;11.214;2022-09-27T02:30:46;2.00;;;1.90;;
9986;SDS011;5033;46.310;11.214;2022-09-27T02:33:15;3.25;;;2.97;;
9986;SDS011;5033;46.310;11.214;2022-09-27T02:35:44;3.70;;;3.42;;
9986;SDS011;5033;46.310;11.214;2022-09-27T02:38:11;4.20;;;3.67;;
9986;SDS011;5033;46.310;11.214;2022-09-27T02:40:41;2.85;;;2.65;;
9986;SDS011;5033;46.310;11.214;2022-09-27T02:43:10;3.08;;;2.88;;
9986;SDS011;5033;46.310;11.214;2022-09-27T02:45:40;3.22;;;3.00;;
9986;SDS011;5033;46.310;11.214;2022-09-27T02:48:17;3.25;;;3.00;;
9986;SDS011;5033;46.310;11.214;2022-09-27T02:50:56;3.45;;;2.28;;
9986;SDS011;5033;46.310;11.214;2022-09-27T02:53:37;2.92;;;2.72;;
9986;SDS011;5033;46.310;11.214;2022-09-27T02:56:17;3.00;;;2.80;;
9986;SDS011;5033;46.310;11.214;2022-09-27T02:58:54;3.47;;;3.17;;
9986;SDS011;5033;46.310;11.214;2022-09-27T03:01:33;3.13;;;2.90;;
9986;SDS011;5033;46.310;11.214;2022-09-27T03:04:08;3.00;;;2.80;;
9986;SDS011;5033;46.310;11.214;2022-09-27T03:06:41;3.03;;;2.83;;
9986;SDS011;5033;46.310;11.214;2022-09-27T03:09:18;3.00;;;2.70;;
9986;SDS011;5033;46.310;11.214;2022-09-27T03:11:45;2.90;;;2.70;;
9986;SDS011;5033;46.310;11.214;2022-09-27T03:14:13;2.90;;;2.70;;
9986;SDS011;5033;46.310;11.214;2022-09-27T03:16:40;2.70;;;2.60;;
9986;SDS011;5033;46.310;11.214;2022-09-27T03:19:08;2.40;;;2.30;;
9986;SDS011;5033;46.310;11.214;2022-09-27T03:21:36;2.70;;;2.50;;
9986;SDS011;5033;46.310;11.214;2022-09-27T03:24:03;3.00;;;2.80;;
9986;SDS011;5033;46.310;11.214;2022-09-27T03:26:30;3.22;;;2.97;;
9986;SDS011;5033;46.310;11.214;2022-09-27T03:28:57;2.85;;;2.65;;
9986;SDS011;5033;46.310;11.214;2022-09-27T03:31:25;3.30;;;3.00;;
9986;SDS011;5033;46.310;11.214;2022-09-27T03:33:52;3.13;;;2.92;;
9986;SDS011;5033;46.310;11.214;2022-09-27T03:36:21;2.97;;;2.78;;
9986;SDS011;5033;46.310;11.214;2022-09-27T03:38:48;3.05;;;2.85;;
9986;SDS011;5033;46.310;11.214;2022-09-27T03:41:15;3.10;;;2.90;;
9986;SDS011;5033;46.310;11.214;2022-09-27T03:43:42;3.20;;;3.00;;
9986;SDS011;5033;46.310;11.214;2022-09-27T03:46:09;2.95;;;2.75;;
9986;SDS011;5033;46.310;11.214;2022-09-27T03:48:36;2.97;;;2.78;;
9986;SDS011;5033;46.310;11.214;2022-09-27T03:51:03;2.50;;;2.40;;
9986;SDS011;5033;46.310;11.214;2022-09-27T03:53:32;3.10;;;2.90;;
9986;SDS011;5033;46.310;11.214;2022-09-27T03:56:00;2.78;;;2.58;;
9986;SDS011;5033;46.310;11.214;2022-09-27T03:58:27;2.92;;;2.72;;
9986;SDS011;5033;46.310;11.214;2022-09-27T04:00:54;3.10;;;2.88;;
9986;SDS011;5033;46.310;11.214;2022-09-27T04:03:21;3.13;;;2.78;;
9986;SDS011;5033;46.310;11.214;2022-09-27T04:05:51;2.90;;;2.70;;
9986;SDS011;5033;46.310;11.214;2022-09-27T04:08:18;3.05;;;2.85;;
9986;SDS011;5033;46.310;11.214;2022-09-27T04:10:47;3.00;;;2.80;;
9986;SDS011;5033;46.310;11.214;2022-09-27T04:13:14;3.30;;;3.00;;
9986;SDS011;5033;46.310;11.214;2022-09-27T04:15:41;3.10;;;2.90;;
9986;SDS011;5033;46.310;11.214;2022-09-27T04:18:09;3.22;;;3.03;;
9986;SDS011;5033;46.310;11.214;2022-09-27T04:20:36;3.10;;;2.90;;
9986;SDS011;5033;46.310;11.214;2022-09-27T04:23:03;2.88;;;2.67;;
9986;SDS011;5033;46.310;11.214;2022-09-27T04:25:30;3.03;;;2.83;;
9986;SDS011;5033;46.310;11.214;2022-09-27T04:27:59;3.65;;;3.00;;
9986;SDS011;5033;46.310;11.214;2022-09-27T04:30:27;3.05;;;2.85;;
9986;SDS011;5033;46.310;11.214;2022-09-27T04:32:55;3.88;;;2.92;;
9986;SDS011;5033;46.310;11.214;2022-09-27T04:35:22;3.40;;;3.20;;
9986;SDS011;5033;46.310;11.214;2022-09-27T04:38:07;3.20;;;3.00;;
9986;SDS011;5033;46.310;11.214;2022-09-27T04:40:34;3.30;;;3.10;;
9986;SDS011;5033;46.310;11.214;2022-09-27T04:43:03;3.05;;;2.85;;
9986;SDS011;5033;46.310;11.214;2022-09-27T04:45:30;2.78;;;2.58;;
9986;SDS011;5033;46.310;11.214;2022-09-27T04:47:57;2.75;;;2.55;;
9986;SDS011;5033;46.310;11.214;2022-09-27T04:50:24;3.65;;;3.35;;
9986;SDS011;5033;46.310;11.214;2022-09-27T04:52:52;3.50;;;3.20;;
9986;SDS011;5033;46.310;11.214;2022-09-27T04:55:20;2.97;;;2.78;;
9986;SDS011;5033;46.310;11.214;2022-09-27T04:57:48;3.15;;;2.95;;
9986;SDS011;5033;46.310;11.214;2022-09-27T05:00:16;3.38;;;3.08;;
9986;SDS011;5033;46.310;11.214;2022-09-27T05:02:44;3.00;;;2.80;;
9986;SDS011;5033;46.310;11.214;2022-09-27T05:05:12;3.22;;;2.92;;
9986;SDS011;5033;46.310;11.214;2022-09-27T05:07:39;2.97;;;2.78;;
9986;SDS011;5033;46.310;11.214;2022-09-27T05:10:07;3.20;;;3.00;;
9986;SDS011;5033;46.310;11.214;2022-09-27T05:12:35;3.00;;;2.80;;
9986;SDS011;5033;46.310;11.214;2022-09-27T05:15:02;3.05;;;2.85;;
9986;SDS011;5033;46.310;11.214;2022-09-27T05:17:31;3.47;;;3.17;;
9986;SDS011;5033;46.310;11.214;2022-09-27T05:19:58;2.95;;;2.75;;
9986;SDS011;5033;46.310;11.214;2022-09-27T05:22:26;2.90;;;2.70;;
9986;SDS011;5033;46.310;11.214;2022-09-27T05:24:53;3.25;;;3.05;;
9986;SDS011;5033;46.310;11.214;2022-09-27T05:27:20;3.10;;;2.90;;
9986;SDS011;5033;46.310;11.214;2022-09-27T05:29:47;3.40;;;3.20;;
9986;SDS011;5033;46.310;11.214;2022-09-27T05:32:15;2.83;;;2.63;;
9986;SDS011;5033;46.310;11.214;2022-09-27T05:34:43;3.42;;;3.22;;
9986;SDS011;5033;46.310;11.214;2022-09-27T05:37:10;4.65;;;3.83;;
9986;SDS011;5033;46.310;11.214;2022-09-27T05:39:38;3.97;;;3.65;;
9986;SDS011;5033;46.310;11.214;2022-09-27T05:42:05;4.05;;;3.65;;
9986;SDS011;5033;46.310;11.214;2022-09-27T05:44:34;4.20;;;3.70;;
9986;SDS011;5033;46.310;11.214;2022-09-27T05:47:02;3.53;;;3.22;;
9986;SDS011;5033;46.310;11.214;2022-09-27T05:49:30;3.88;;;3.58;;
9986;SDS011;5033;46.310;11.214;2022-09-27T05:51:58;3.53;;;3.22;;
9986;SDS011;5033;46.310;11.214;2022-09-27T05:54:26;4.07;;;3.25;;
9986;SDS011;5033;46.310;11.214;2022-09-27T05:56:54;3.58;;;3.28;;
9986;SDS011;5033;46.310;11.214;2022-09-27T05:59:22;2.92;;;2.72;;
9986;SDS011;5033;46.310;11.214;2022-09-27T06:01:50;2.90;;;2.70;;
9986;SDS011;5033;46.310;11.214;2022-09-27T06:04:17;3.08;;;2.88;;
9986;SDS011;5033;46.310;11.214;2022-09-27T06:06:45;3.75;;;3.45;;
9986;SDS011;5033;46.310;11.214;2022-09-27T06:09:14;3.83;;;3.53;;
9986;SDS011;5033;46.310;11.214;2022-09-27T06:11:42;4.45;;;3.35;;
9986;SDS011;5033;46.310;11.214;2022-09-27T06:14:10;4.05;;;3.25;;
9986;SDS011;5033;46.310;11.214;2022-09-27T06:16:38;2.90;;;2.70;;
9986;SDS011;5033;46.310;11.214;2022-09-27T06:19:05;2.60;;;2.40;;
9986;SDS011;5033;46.310;11.214;2022-09-27T06:21:32;3.15;;;2.95;;
9986;SDS011;5033;46.310;11.214;2022-09-27T06:24:00;2.88;;;2.67;;
9986;SDS011;5033;46.310;11.214;2022-09-27T06:26:28;3.60;;;3.35;;
9986;SDS011;5033;46.310;11.214;2022-09-27T06:28:55;3.08;;;2.88;;
9986;SDS011;5033;46.310;11.214;2022-09-27T06:31:23;3.30;;;3.05;;
9986;SDS011;5033;46.310;11.214;2022-09-27T06:33:50;4.13;;;3.83;;
9986;SDS011;5033;46.310;11.214;2022-09-27T06:36:17;4.05;;;3.65;;
9986;SDS011;5033;46.310;11.214;2022-09-27T06:38:44;3.90;;;3.60;;
9986;SDS011;5033;46.310;11.214;2022-09-27T06:41:13;3.97;;;3.67;;
9986;SDS011;5033;46.310;11.214;2022-09-27T06:43:42;4.25;;;3.85;;
9986;SDS011;5033;46.310;11.214;2022-09-27T06:46:09;4.07;;;3.78;;
9986;SDS011;5033;46.310;11.214;2022-09-27T06:48:36;3.70;;;3.40;;
9986;SDS011;5033;46.310;11.214;2022-09-27T06:51:04;3.70;;;3.40;;
9986;SDS011;5033;46.310;11.214;2022-09-27T06:53:31;3.47;;;3.17;;
9986;SDS011;5033;46.310;11.214;2022-09-27T06:55:59;3.58;;;3.38;;
9986;SDS011;5033;46.310;11.214;2022-09-27T06:58:26;3.72;;;3.47;;
9986;SDS011;5033;46.310;11.214;2022-09-27T07:01:28;3.10;;;2.90;;
9986;SDS011;5033;46.310;11.214;2022-09-27T07:03:55;3.20;;;3.00;;
9986;SDS011;5033;46.310;11.214;2022-09-27T07:06:22;3.40;;;3.10;;
9986;SDS011;5033;46.310;11.214;2022-09-27T07:08:51;3.55;;;3.25;;
9986;SDS011;5033;46.310;11.214;2022-09-27T07:11:18;3.03;;;2.83;;
9986;SDS011;5033;46.310;11.214;2022-09-27T07:13:47;3.78;;;3.47;;
9986;SDS011;5033;46.310;11.214;2022-09-27T07:16:16;3.38;;;3.17;;
9986;SDS011;5033;46.310;11.214;2022-09-27T07:18:45;3.85;;;3.55;;
9986;SDS011;5033;46.310;11.214;2022-09-27T07:21:14;3.60;;;3.40;;
9986;SDS011;5033;46.310;11.214;2022-09-27T07:23:42;3.92;;;3.63;;
9986;SDS011;5033;46.310;11.214;2022-09-27T07:26:09;3.97;;;3.67;;
9986;SDS011;5033;46.310;11.214;2022-09-27T07:28:36;3.88;;;3.58;;
9986;SDS011;5033;46.310;11.214;2022-09-27T07:31:05;4.47;;;4.18;;
9986;SDS011;5033;46.310;11.214;2022-09-27T07:33:33;5.38;;;4.10;;
9986;SDS011;5033;46.310;11.214;2022-09-27T07:36:06;4.43;;;3.85;;
9986;SDS011;5033;46.310;11.214;2022-09-27T07:38:34;3.97;;;3.67;;
9986;SDS011;5033;46.310;11.214;2022-09-27T07:41:05;4.10;;;3.58;;
9986;SDS011;5033;46.310;11.214;2022-09-27T07:43:32;5.72;;;3.80;;
9986;SDS011;5033;46.310;11.214;2022-09-27T07:46:00;4.15;;;3.78;;
9986;SDS011;5033;46.310;11.214;2022-09-27T07:48:27;3.40;;;3.20;;
9986;SDS011;5033;46.310;11.214;2022-09-27T07:50:54;4.00;;;3.70;;
9986;SDS011;5033;46.310;11.214;2022-09-27T07:53:22;3.55;;;3.35;;
9986;SDS011;5033;46.310;11.214;2022-09-27T07:55:50;4.40;;;4.10;;
9986;SDS011;5033;46.310;11.214;2022-09-27T07:58:18;3.88;;;3.58;;
9986;SDS011;5033;46.310;11.214;2022-09-27T08:00:46;4.07;;;3.75;;
9986;SDS011;5033;46.310;11.214;2022-09-27T08:03:13;4.57;;;4.18;;
9986;SDS011;5033;46.310;11.214;2022-09-27T08:05:41;3.88;;;3.58;;
9986;SDS011;5033;46.310;11.214;2022-09-27T08:08:09;4.10;;;3.80;;
9986;SDS011;5033;46.310;11.214;2022-09-27T08:10:38;4.35;;;4.05;;
9986;SDS011;5033;46.310;11.214;2022-09-27T08:13:10;4.97;;;4.53;;
9986;SDS011;5033;46.310;11.214;2022-09-27T08:15:38;3.70;;;3.40;;
9986;SDS011;5033;46.310;11.214;2022-09-27T08:18:06;3.58;;;3.28;;
9986;SDS011;5033;46.310;11.214;2022-09-27T08:20:33;3.35;;;3.05;;
9986;SDS011;5033;46.310;11.214;2022-09-27T08:23:02;3.13;;;2.92;;
9986;SDS011;5033;46.310;11.214;2022-09-27T08:25:29;3.70;;;2.80;;
9986;SDS011;5033;46.310;11.214;2022-09-27T08:27:58;3.10;;;2.80;;
9986;SDS011;5033;46.310;11.214;2022-09-27T08:30:28;4.57;;;3.33;;
9986;SDS011;5033;46.310;11.214;2022-09-27T08:32:57;5.20;;;2.97;;
9986;SDS011;5033;46.310;11.214;2022-09-27T08:35:26;2.55;;;2.35;;
9986;SDS011;5033;46.310;11.214;2022-09-27T08:37:54;3.38;;;2.90;;
9986;SDS011;5033;46.310;11.214;2022-09-27T08:40:23;3.85;;;3.38;;
9986;SDS011;5033;46.310;11.214;2022-09-27T08:43:05;3.10;;;2.80;;
9986;SDS011;5033;46.310;11.214;2022-09-27T08:45:45;3.33;;;2.70;;
9986;SDS011;5033;46.310;11.214;2022-09-27T08:48:23;2.63;;;2.42;;
9986;SDS011;5033;46.310;11.214;2022-09-27T08:50:53;2.45;;;2.30;;
9986;SDS011;5033;46.310;11.214;2022-09-27T08:53:21;2.40;;;2.20;;
9986;SDS011;5033;46.310;11.214;2022-09-27T08:55:53;2.15;;;1.90;;
9986;SDS011;5033;46.310;11.214;2022-09-27T08:58:24;1.60;;;1.50;;
9986;SDS011;5033;46.310;11.214;2022-09-27T09:00:53;1.75;;;1.40;;
9986;SDS011;5033;46.310;11.214;2022-09-27T09:03:24;1.50;;;1.40;;
9986;SDS011;5033;46.310;11.214;2022-09-27T09:06:02;1.90;;;1.80;;
9986;SDS011;5033;46.310;11.214;2022-09-27T09:08:38;1.70;;;1.50;;
9986;SDS011;5033;46.310;11.214;2022-09-27T09:11:16;2.25;;;1.60;;
9986;SDS011;5033;46.310;11.214;2022-09-27T09:14:23;1.48;;;1.38;;
9986;SDS011;5033;46.310;11.214;2022-09-27T09:17:12;1.20;;;1.20;;
9986;SDS011;5033;46.310;11.214;2022-09-27T09:19:54;1.48;;;1.35;;
9986;SDS011;5033;46.310;11.214;2022-09-27T09:22:37;1.30;;;1.20;;
9986;SDS011;5033;46.310;11.214;2022-09-27T09:25:25;1.45;;;1.35;;
9986;SDS011;5033;46.310;11.214;2022-09-27T09:28:01;1.38;;;1.30;;
9986;SDS011;5033;46.310;11.214;2022-09-27T09:30:42;1.40;;;1.30;;
9986;SDS011;5033;46.310;11.214;2022-09-27T09:33:21;1.48;;;1.38;;
9986;SDS011;5033;46.310;11.214;2022-09-27T09:35:53;1.58;;;1.48;;
9986;SDS011;5033;46.310;11.214;2022-09-27T09:38:26;1.38;;;1.27;;
9986;SDS011;5033;46.310;11.214;2022-09-27T09:41:02;1.10;;;1.00;;
9986;SDS011;5033;46.310;11.214;2022-09-27T09:43:33;1.15;;;1.15;;
9986;SDS011;5033;46.310;11.214;2022-09-27T09:46:08;1.40;;;1.30;;
9986;SDS011;5033;46.310;11.214;2022-09-27T09:48:40;1.42;;;1.30;;
9986;SDS011;5033;46.310;11.214;2022-09-27T09:51:14;1.45;;;1.35;;
9986;SDS011;5033;46.310;11.214;2022-09-27T09:53:48;1.40;;;1.30;;
9986;SDS011;5033;46.310;11.214;2022-09-27T09:56:21;1.25;;;1.20;;
9986;SDS011;5033;46.310;11.214;2022-09-27T09:58:52;1.17;;;1.10;;
9986;SDS011;5033;46.310;11.214;2022-09-27T10:01:24;1.70;;;1.60;;
9986;SDS011;5033;46.310;11.214;2022-09-27T10:03:53;1.73;;;1.33;;
9986;SDS011;5033;46.310;11.214;2022-09-27T10:06:21;1.50;;;1.10;;
9986;SDS011;5033;46.310;11.214;2022-09-27T10:08:50;2.05;;;1.40;;
9986;SDS011;5033;46.310;11.214;2022-09-27T10:11:21;1.02;;;1.02;;
9986;SDS011;5033;46.310;11.214;2022-09-27T10:13:51;1.10;;;1.10;;
9986;SDS011;5033;46.310;11.214;2022-09-27T10:16:20;1.20;;;1.20;;
9986;SDS011;5033;46.310;11.214;2022-09-27T10:18:54;1.60;;;1.50;;
9986;SDS011;5033;46.310;11.214;2022-09-27T10:21:27;1.23;;;1.20;;
9986;SDS011;5033;46.310;11.214;2022-09-27T10:24:05;1.42;;;1.33;;
9986;SDS011;5033;46.310;11.214;2022-09-27T10:26:34;1.30;;;1.20;;
9986;SDS011;5033;46.310;11.214;2022-09-27T10:32:00;1.50;;;1.40;;
9986;SDS011;5033;46.310;11.214;2022-09-27T10:34:30;1.45;;;1.20;;
9986;SDS011;5033;46.310;11.214;2022-09-27T10:37:06;1.67;;;1.40;;
9986;SDS011;5033;46.310;11.214;2022-09-27T10:39:42;1.40;;;1.30;;
9986;SDS011;5033;46.310;11.214;2022-09-27T10:42:20;1.40;;;1.30;;
9986;SDS011;5033;46.310;11.214;2022-09-27T10:44:48;1.25;;;1.25;;
9986;SDS011;5033;46.310;11.214;2022-09-27T10:47:20;1.50;;;1.40;;
9986;SDS011;5033;46.310;11.214;2022-09-27T10:49:50;1.30;;;1.20;;
9986;SDS011;5033;46.310;11.214;2022-09-27T10:52:27;1.15;;;1.05;;
9986;SDS011;5033;46.310;11.214;2022-09-27T10:54:55;2.25;;;1.20;;
9986;SDS011;5033;46.310;11.214;2022-09-27T10:57:24;1.48;;;1.38;;
9986;SDS011;5033;46.310;11.214;2022-09-27T10:59:53;1.60;;;1.02;;
9986;SDS011;5033;46.310;11.214;2022-09-27T11:02:28;1.55;;;1.25;;
9986;SDS011;5033;46.310;11.214;2022-09-27T11:05:03;1.10;;;1.00;;
9986;SDS011;5033;46.310;11.214;2022-09-27T11:07:35;1.77;;;1.13;;
9986;SDS011;5033;46.310;11.214;2022-09-27T11:10:21;1.13;;;1.13;;
9986;SDS011;5033;46.310;11.214;2022-09-27T11:13:04;0.90;;;0.90;;
9986;SDS011;5033;46.310;11.214;2022-09-27T11:15:44;1.02;;;0.98;;
9986;SDS011;5033;46.310;11.214;2022-09-27T11:18:22;2.15;;;0.73;;
9986;SDS011;5033;46.310;11.214;2022-09-27T11:20:58;0.98;;;0.98;;
9986;SDS011;5033;46.310;11.214;2022-09-27T11:23:36;1.02;;;1.00;;
9986;SDS011;5033;46.310;11.214;2022-09-27T11:26:23;0.93;;;0.93;;
9986;SDS011;5033;46.310;11.214;2022-09-27T11:28:59;0.90;;;0.90;;
9986;SDS011;5033;46.310;11.214;2022-09-27T11:31:39;0.80;;;0.80;;
9986;SDS011;5033;46.310;11.214;2022-09-27T11:34:18;0.73;;;0.73;;
9986;SDS011;5033;46.310;11.214;2022-09-27T11:37:06;0.80;;;0.80;;
9986;SDS011;5033;46.310;11.214;2022-09-27T11:39:47;0.93;;;0.93;;
9986;SDS011;5033;46.310;11.214;2022-09-27T11:42:40;1.40;;;0.90;;
9986;SDS011;5033;46.310;11.214;2022-09-27T11:45:25;0.90;;;0.90;;
9986;SDS011;5033;46.310;11.214;2022-09-27T11:48:04;1.00;;;1.00;;
9986;SDS011;5033;46.310;11.214;2022-09-27T11:51:01;1.20;;;1.10;;
9986;SDS011;5033;46.310;11.214;2022-09-27T11:53:48;0.90;;;0.90;;
9986;SDS011;5033;46.310;11.214;2022-09-27T11:56:30;1.00;;;1.00;;
9986;SDS011;5033;46.310;11.214;2022-09-27T11:59:11;1.20;;;1.10;;
9986;SDS011;5033;46.310;11.214;2022-09-27T12:02:00;1.02;;;1.00;;
9986;SDS011;5033;46.310;11.214;2022-09-27T12:07:35;1.00;;;0.90;;
9986;SDS011;5033;46.310;11.214;2022-09-27T12:10:08;1.08;;;0.98;;
9986;SDS011;5033;46.310;11.214;2022-09-27T12:12:39;1.35;;;1.25;;
9986;SDS011;5033;46.310;11.214;2022-09-27T12:15:12;0.90;;;0.90;;
9986;SDS011;5033;46.310;11.214;2022-09-27T12:17:43;1.13;;;1.13;;
9986;SDS011;5033;46.310;11.214;2022-09-27T12:20:15;0.80;;;0.80;;
9986;SDS011;5033;46.310;11.214;2022-09-27T12:22:51;1.02;;;1.02;;
9986;SDS011;5033;46.310;11.214;2022-09-27T12:25:22;1.08;;;0.90;;
9986;SDS011;5033;46.310;11.214;2022-09-27T12:27:54;1.65;;;1.02;;
9986;SDS011;5033;46.310;11.214;2022-09-27T12:30:26;1.00;;;1.00;;
9986;SDS011;5033;46.310;11.214;2022-09-27T12:33:05;1.70;;;0.90;;
9986;SDS011;5033;46.310;11.214;2022-09-27T12:35:39;1.25;;;1.15;;
9986;SDS011;5033;46.310;11.214;2022-09-27T12:38:13;1.63;;;1.45;;
9986;SDS011;5033;46.310;11.214;2022-09-27T12:40:44;1.27;;;1.17;;
9986;SDS011;5033;46.310;11.214;2022-09-27T12:43:16;1.00;;;1.00;;
9986;SDS011;5033;46.310;11.214;2022-09-27T12:45:48;1.88;;;1.20;;
9986;SDS011;5033;46.310;11.214;2022-09-27T12:48:27;1.38;;;1.15;;
9986;SDS011;5033;46.310;11.214;2022-09-27T12:51:05;1.00;;;1.00;;
9986;SDS011;5033;46.310;11.214;2022-09-27T12:53:40;1.48;;;1.38;;
9986;SDS011;5033;46.310;11.214;2022-09-27T12:56:27;1.75;;;1.50;;
9986;SDS011;5033;46.310;11.214;2022-09-27T12:59:08;1.30;;;1.00;;
9986;SDS011;5033;46.310;11.214;2022-09-27T13:05:01;1.00;;;1.00;;
9986;SDS011;5033;46.310;11.214;2022-09-27T13:07:45;1.10;;;1.05;;
9986;SDS011;5033;46.310;11.214;2022-09-27T13:10:25;0.90;;;0.90;;
9986;SDS011;5033;46.310;11.214;2022-09-27T13:13:13;0.98;;;0.90;;
9986;SDS011;5033;46.310;11.214;2022-09-27T13:15:43;1.10;;;1.00;;
9986;SDS011;5033;46.310;11.214;2022-09-27T13:18:28;1.40;;;0.95;;
9986;SDS011;5033;46.310;11.214;2022-09-27T13:20:56;0.95;;;0.95;;
9986;SDS011;5033;46.310;11.214;2022-09-27T13:26:41;0.77;;;0.77;;
9986;SDS011;5033;46.310;11.214;2022-09-27T13:29:23;0.85;;;0.85;;
9986;SDS011;5033;46.310;11.214;2022-09-27T13:32:02;1.20;;;1.10;;
9986;SDS011;5033;46.310;11.214;2022-09-27T13:34:52;1.38;;;0.90;;
9986;SDS011;5033;46.310;11.214;2022-09-27T13:37:33;1.00;;;1.00;;
9986;SDS011;5033;46.310;11.214;2022-09-27T13:40:22;0.88;;;0.88;;
9986;SDS011;5033;46.310;11.214;2022-09-27T13:46:15;0.90;;;0.90;;
9986;SDS011;5033;46.310;11.214;2022-09-27T13:48:46;0.80;;;0.80;;
9986;SDS011;5033;46.310;11.214;2022-09-27T13:51:29;1.67;;;1.10;;
9986;SDS011;5033;46.310;11.214;2022-09-27T13:54:02;1.00;;;1.00;;
9986;SDS011;5033;46.310;11.214;2022-09-27T13:56:50;0.93;;;0.93;;
9986;SDS011;5033;46.310;11.214;2022-09-27T13:59:22;0.80;;;0.80;;
9986;SDS011;5033;46.310;11.214;2022-09-27T14:01:58;0.90;;;0.90;;
9986;SDS011;5033;46.310;11.214;2022-09-27T14:04:31;0.85;;;0.85;;
9986;SDS011;5033;46.310;11.214;2022-09-27T14:07:02;1.05;;;1.00;;
9986;SDS011;5033;46.310;11.214;2022-09-27T14:09:31;0.82;;;0.82;;
9986;SDS011;5033;46.310;11.214;2022-09-27T14:12:02;0.80;;;0.80;;
9986;SDS011;5033;46.310;11.214;2022-09-27T14:14:34;1.23;;;0.68;;
9986;SDS011;5033;46.310;11.214;2022-09-27T14:17:06;0.80;;;0.80;;
9986;SDS011;5033;46.310;11.214;2022-09-27T14:19:37;0.75;;;0.70;;
9986;SDS011;5033;46.310;11.214;2022-09-27T14:22:10;0.90;;;0.90;;
9986;SDS011;5033;46.310;11.214;2022-09-27T14:24:42;0.70;;;0.70;;
9986;SDS011;5033;46.310;11.214;2022-09-27T14:27:12;0.80;;;0.70;;
9986;SDS011;5033;46.310;11.214;2022-09-27T14:29:42;0.88;;;0.88;;
9986;SDS011;5033;46.310;11.214;2022-09-27T14:32:13;0.70;;;0.70;;
9986;SDS011;5033;46.310;11.214;2022-09-27T14:34:42;0.70;;;0.70;;
9986;SDS011;5033;46.310;11.214;2022-09-27T14:37:22;0.90;;;0.90;;
9986;SDS011;5033;46.310;11.214;2022-09-27T14:39:56;0.80;;;0.80;;
9986;SDS011;5033;46.310;11.214;2022-09-27T14:42:29;0.60;;;0.60;;
9986;SDS011;5033;46.310;11.214;2022-09-27T14:45:02;0.80;;;0.80;;
9986;SDS011;5033;46.310;11.214;2022-09-27T14:47:44;0.80;;;0.80;;
9986;SDS011;5033;46.310;11.214;2022-09-27T14:50:16;0.80;;;0.80;;
9986;SDS011;5033;46.310;11.214;2022-09-27T14:52:45;0.70;;;0.70;;
9986;SDS011;5033;46.310;11.214;2022-09-27T14:55:15;0.80;;;0.80;;
9986;SDS011;5033;46.310;11.214;2022-09-27T14:57:48;0.70;;;0.70;;
9986;SDS011;5033;46.310;11.214;2022-09-27T15:00:18;0.90;;;0.90;;
9986;SDS011;5033;46.310;11.214;2022-09-27T15:02:48;0.70;;;0.70;;
9986;SDS011;5033;46.310;11.214;2022-09-27T15:05:19;0.80;;;0.80;;
9986;SDS011;5033;46.310;11.214;2022-09-27T15:07:48;0.63;;;0.63;;
9986;SDS011;5033;46.310;11.214;2022-09-27T15:10:16;0.70;;;0.70;;
9986;SDS011;5033;46.310;11.214;2022-09-27T15:12:46;0.75;;;0.75;;
9986;SDS011;5033;46.310;11.214;2022-09-27T15:15:20;0.80;;;0.70;;
9986;SDS011;5033;46.310;11.214;2022-09-27T15:17:50;0.70;;;0.70;;
9986;SDS011;5033;46.310;11.214;2022-09-27T15:20:18;0.50;;;0.50;;
9986;SDS011;5033;46.310;11.214;2022-09-27T15:22:48;0.75;;;0.75;;
9986;SDS011;5033;46.310;11.214;2022-09-27T15:28:02;0.60;;;0.60;;
9986;SDS011;5033;46.310;11.214;2022-09-27T15:30:34;0.70;;;0.70;;
9986;SDS011;5033;46.310;11.214;2022-09-27T15:33:04;1.42;;;0.73;;
9986;SDS011;5033;46.310;11.214;2022-09-27T15:35:46;0.65;;;0.65;;
9986;SDS011;5033;46.310;11.214;2022-09-27T15:38:25;0.70;;;0.70;;
9986;SDS011;5033;46.310;11.214;2022-09-27T15:41:02;0.90;;;0.90;;
9986;SDS011;5033;46.310;11.214;2022-09-27T15:43:33;0.70;;;0.70;;
9986;SDS011;5033;46.310;11.214;2022-09-27T15:46:04;0.80;;;0.80;;
9986;SDS011;5033;46.310;11.214;2022-09-27T15:48:54;0.60;;;0.60;;
9986;SDS011;5033;46.310;11.214;2022-09-27T15:51:47;0.70;;;0.70;;